Decoded Metar for USSS (SVERDLOVSK in RUSSIA) (IATA:SVX) | Meteo·Mobile Aviation Weather
aviador You're here:

USSS Decoded Metar

SVERDLOVSK in RUSSIA
Report Time2019-02-22 19:30:00
UTC Time2019-02-22 20:10:45
Flight Rules vfr VFR
Wind130° at 6 kt
W.Decomp.*RWY 08: 4.9 kt HW 3.5 kt RCW
W.Rank130° ranks 16
Current wind is below 130° avg. (6.0)
Visibility9999 m
Phenomena:N/A
Clouds:Few 016 Hf
Expected CloudBase > 800 ft AGL from Temp-Dew spread
CeilingNone
Temp-5°C (ISA -18)
Dew Point-7°C (86% RH)
AAT-10.0°C
QNH1011 hPa
Density Alt-1,394 ft
Elevation764 ft
Report Wrong Elevation
Raw Report
USSS 221930Z 13003MPS 9999 FEW016 M05/M07 Q1011 R08L/420142 NOSIG
RMK QFE738/0984=

Extra information for USSS:More info

Metar Taf Metar & Taf Last 4 Metars F.Rules Stats Wind Profile Meteogram Temp Stats Airport Information Weather charts Add Link Nearby VenuesMetar ALERT Operation Metar Decoded Social comments